sensor_id;sensor_type;location;lat;lon;timestamp;P1;durP1;ratioP1;P2;durP2;ratioP2
20283;SDS011;10301;50.832;4.080;2023-05-14T00:01:57;136.48;;;62.20;;
20283;SDS011;10301;50.832;4.080;2023-05-14T00:04:23;132.85;;;62.85;;
20283;SDS011;10301;50.832;4.080;2023-05-14T00:06:49;135.60;;;63.83;;
20283;SDS011;10301;50.832;4.080;2023-05-14T00:09:14;141.07;;;63.70;;
20283;SDS011;10301;50.832;4.080;2023-05-14T00:11:40;138.00;;;62.05;;
20283;SDS011;10301;50.832;4.080;2023-05-14T00:14:06;135.18;;;60.97;;
20283;SDS011;10301;50.832;4.080;2023-05-14T00:16:32;141.70;;;61.20;;
20283;SDS011;10301;50.832;4.080;2023-05-14T00:18:57;143.45;;;61.05;;
20283;SDS011;10301;50.832;4.080;2023-05-14T00:21:23;137.05;;;62.53;;
20283;SDS011;10301;50.832;4.080;2023-05-14T00:23:48;135.55;;;62.42;;
20283;SDS011;10301;50.832;4.080;2023-05-14T00:26:14;134.35;;;63.13;;
20283;SDS011;10301;50.832;4.080;2023-05-14T00:28:40;133.38;;;62.13;;
20283;SDS011;10301;50.832;4.080;2023-05-14T00:31:06;132.43;;;63.00;;
20283;SDS011;10301;50.832;4.080;2023-05-14T00:33:31;140.40;;;64.18;;
20283;SDS011;10301;50.832;4.080;2023-05-14T00:35:57;133.35;;;64.00;;
20283;SDS011;10301;50.832;4.080;2023-05-14T00:38:23;136.70;;;60.15;;
20283;SDS011;10301;50.832;4.080;2023-05-14T00:40:51;148.30;;;64.22;;
20283;SDS011;10301;50.832;4.080;2023-05-14T00:43:20;142.70;;;64.03;;
20283;SDS011;10301;50.832;4.080;2023-05-14T00:45:50;146.18;;;66.45;;
20283;SDS011;10301;50.832;4.080;2023-05-14T00:48:18;157.30;;;66.15;;
20283;SDS011;10301;50.832;4.080;2023-05-14T00:50:45;158.07;;;69.75;;
20283;SDS011;10301;50.832;4.080;2023-05-14T00:53:11;145.52;;;65.55;;
20283;SDS011;10301;50.832;4.080;2023-05-14T00:55:37;150.60;;;69.80;;
20283;SDS011;10301;50.832;4.080;2023-05-14T00:58:13;163.98;;;72.65;;
20283;SDS011;10301;50.832;4.080;2023-05-14T01:00:39;164.55;;;68.55;;
20283;SDS011;10301;50.832;4.080;2023-05-14T01:03:06;169.68;;;69.72;;
20283;SDS011;10301;50.832;4.080;2023-05-14T01:11:19;161.52;;;68.47;;
20283;SDS011;10301;50.832;4.080;2023-05-14T01:14:04;163.60;;;66.25;;
20283;SDS011;10301;50.832;4.080;2023-05-14T01:16:34;159.00;;;69.22;;
20283;SDS011;10301;50.832;4.080;2023-05-14T01:19:01;145.70;;;64.75;;
20283;SDS011;10301;50.832;4.080;2023-05-14T01:21:32;149.60;;;65.13;;
20283;SDS011;10301;50.832;4.080;2023-05-14T01:24:03;149.60;;;65.82;;
20283;SDS011;10301;50.832;4.080;2023-05-14T01:26:29;140.27;;;65.15;;
20283;SDS011;10301;50.832;4.080;2023-05-14T01:28:57;141.57;;;62.83;;
20283;SDS011;10301;50.832;4.080;2023-05-14T01:31:30;138.18;;;62.10;;
20283;SDS011;10301;50.832;4.080;2023-05-14T01:34:00;135.02;;;63.47;;
20283;SDS011;10301;50.832;4.080;2023-05-14T01:36:28;135.88;;;62.75;;
20283;SDS011;10301;50.832;4.080;2023-05-14T01:38:55;142.50;;;62.95;;
20283;SDS011;10301;50.832;4.080;2023-05-14T01:41:21;144.35;;;64.47;;
20283;SDS011;10301;50.832;4.080;2023-05-14T01:43:50;134.70;;;61.53;;
20283;SDS011;10301;50.832;4.080;2023-05-14T01:46:19;143.40;;;65.15;;
20283;SDS011;10301;50.832;4.080;2023-05-14T01:48:45;133.65;;;60.00;;
20283;SDS011;10301;50.832;4.080;2023-05-14T01:51:10;128.18;;;57.67;;
20283;SDS011;10301;50.832;4.080;2023-05-14T01:53:38;130.52;;;60.80;;
20283;SDS011;10301;50.832;4.080;2023-05-14T01:56:04;129.65;;;58.63;;
20283;SDS011;10301;50.832;4.080;2023-05-14T01:58:30;132.20;;;60.60;;
20283;SDS011;10301;50.832;4.080;2023-05-14T02:00:56;138.00;;;63.83;;
20283;SDS011;10301;50.832;4.080;2023-05-14T02:03:21;138.20;;;61.40;;
20283;SDS011;10301;50.832;4.080;2023-05-14T02:05:47;143.48;;;64.85;;
20283;SDS011;10301;50.832;4.080;2023-05-14T02:08:12;141.30;;;62.17;;
20283;SDS011;10301;50.832;4.080;2023-05-14T02:10:38;135.68;;;57.70;;
20283;SDS011;10301;50.832;4.080;2023-05-14T02:13:04;127.78;;;59.95;;
20283;SDS011;10301;50.832;4.080;2023-05-14T02:15:30;125.00;;;59.67;;
20283;SDS011;10301;50.832;4.080;2023-05-14T02:17:55;124.88;;;58.25;;
20283;SDS011;10301;50.832;4.080;2023-05-14T02:20:21;129.38;;;56.33;;
20283;SDS011;10301;50.832;4.080;2023-05-14T02:22:47;119.82;;;56.15;;
20283;SDS011;10301;50.832;4.080;2023-05-14T02:25:12;121.28;;;52.75;;
20283;SDS011;10301;50.832;4.080;2023-05-14T02:27:38;115.20;;;53.00;;
20283;SDS011;10301;50.832;4.080;2023-05-14T02:30:04;106.97;;;50.45;;
20283;SDS011;10301;50.832;4.080;2023-05-14T02:32:30;114.65;;;54.20;;
20283;SDS011;10301;50.832;4.080;2023-05-14T02:34:55;112.70;;;52.42;;
20283;SDS011;10301;50.832;4.080;2023-05-14T02:37:21;130.75;;;57.67;;
20283;SDS011;10301;50.832;4.080;2023-05-14T02:39:47;133.25;;;59.55;;
20283;SDS011;10301;50.832;4.080;2023-05-14T02:42:13;132.07;;;59.70;;
20283;SDS011;10301;50.832;4.080;2023-05-14T02:44:39;129.95;;;59.00;;
20283;SDS011;10301;50.832;4.080;2023-05-14T02:47:04;124.15;;;57.33;;
20283;SDS011;10301;50.832;4.080;2023-05-14T02:49:30;128.63;;;60.45;;
20283;SDS011;10301;50.832;4.080;2023-05-14T02:51:56;126.18;;;60.40;;
20283;SDS011;10301;50.832;4.080;2023-05-14T02:54:22;138.45;;;62.83;;
20283;SDS011;10301;50.832;4.080;2023-05-14T02:56:48;135.40;;;61.40;;
20283;SDS011;10301;50.832;4.080;2023-05-14T02:59:13;141.77;;;61.60;;
20283;SDS011;10301;50.832;4.080;2023-05-14T03:01:39;147.15;;;64.00;;
20283;SDS011;10301;50.832;4.080;2023-05-14T03:04:04;142.60;;;60.47;;
20283;SDS011;10301;50.832;4.080;2023-05-14T03:06:30;140.27;;;63.10;;
20283;SDS011;10301;50.832;4.080;2023-05-14T03:08:56;122.85;;;57.60;;
20283;SDS011;10301;50.832;4.080;2023-05-14T03:11:21;124.55;;;56.78;;
20283;SDS011;10301;50.832;4.080;2023-05-14T03:13:47;114.63;;;54.28;;
20283;SDS011;10301;50.832;4.080;2023-05-14T03:16:13;118.40;;;55.75;;
20283;SDS011;10301;50.832;4.080;2023-05-14T03:18:38;113.07;;;51.35;;
20283;SDS011;10301;50.832;4.080;2023-05-14T03:21:04;117.22;;;54.47;;
20283;SDS011;10301;50.832;4.080;2023-05-14T03:23:30;110.90;;;52.80;;
20283;SDS011;10301;50.832;4.080;2023-05-14T03:25:58;118.70;;;54.90;;
20283;SDS011;10301;50.832;4.080;2023-05-14T03:28:25;110.10;;;53.53;;
20283;SDS011;10301;50.832;4.080;2023-05-14T03:30:50;114.43;;;52.35;;
20283;SDS011;10301;50.832;4.080;2023-05-14T03:33:16;110.32;;;53.50;;
20283;SDS011;10301;50.832;4.080;2023-05-14T03:35:42;119.00;;;54.08;;
20283;SDS011;10301;50.832;4.080;2023-05-14T03:38:07;107.05;;;51.53;;
20283;SDS011;10301;50.832;4.080;2023-05-14T03:40:33;109.43;;;52.97;;
20283;SDS011;10301;50.832;4.080;2023-05-14T03:42:59;104.32;;;50.95;;
20283;SDS011;10301;50.832;4.080;2023-05-14T03:45:24;106.13;;;49.78;;
20283;SDS011;10301;50.832;4.080;2023-05-14T03:47:52;105.43;;;50.85;;
20283;SDS011;10301;50.832;4.080;2023-05-14T03:50:18;107.30;;;50.28;;
20283;SDS011;10301;50.832;4.080;2023-05-14T03:52:43;108.85;;;51.22;;
20283;SDS011;10301;50.832;4.080;2023-05-14T03:55:10;107.00;;;51.95;;
20283;SDS011;10301;50.832;4.080;2023-05-14T03:57:36;103.38;;;48.95;;
20283;SDS011;10301;50.832;4.080;2023-05-14T04:00:02;97.40;;;49.63;;
20283;SDS011;10301;50.832;4.080;2023-05-14T04:02:28;97.93;;;48.72;;
20283;SDS011;10301;50.832;4.080;2023-05-14T04:04:54;102.50;;;49.03;;
20283;SDS011;10301;50.832;4.080;2023-05-14T04:07:20;97.85;;;46.72;;
20283;SDS011;10301;50.832;4.080;2023-05-14T04:09:46;100.35;;;49.15;;
20283;SDS011;10301;50.832;4.080;2023-05-14T04:12:11;92.40;;;46.42;;
20283;SDS011;10301;50.832;4.080;2023-05-14T04:14:37;87.95;;;44.80;;
20283;SDS011;10301;50.832;4.080;2023-05-14T04:17:03;92.53;;;46.50;;
20283;SDS011;10301;50.832;4.080;2023-05-14T04:19:28;97.15;;;47.83;;
20283;SDS011;10301;50.832;4.080;2023-05-14T04:21:54;93.78;;;46.72;;
20283;SDS011;10301;50.832;4.080;2023-05-14T04:24:20;95.97;;;45.17;;
20283;SDS011;10301;50.832;4.080;2023-05-14T04:26:45;86.15;;;44.92;;
20283;SDS011;10301;50.832;4.080;2023-05-14T04:29:11;91.97;;;46.75;;
20283;SDS011;10301;50.832;4.080;2023-05-14T04:31:37;100.05;;;46.95;;
20283;SDS011;10301;50.832;4.080;2023-05-14T04:34:02;95.88;;;46.17;;
20283;SDS011;10301;50.832;4.080;2023-05-14T04:36:28;92.65;;;46.55;;
20283;SDS011;10301;50.832;4.080;2023-05-14T04:38:53;95.38;;;45.78;;
20283;SDS011;10301;50.832;4.080;2023-05-14T04:41:20;99.78;;;48.42;;
20283;SDS011;10301;50.832;4.080;2023-05-14T04:43:45;99.95;;;48.55;;
20283;SDS011;10301;50.832;4.080;2023-05-14T04:46:13;102.15;;;45.20;;
20283;SDS011;10301;50.832;4.080;2023-05-14T04:48:39;106.50;;;47.50;;
20283;SDS011;10301;50.832;4.080;2023-05-14T04:51:05;92.30;;;45.85;;
20283;SDS011;10301;50.832;4.080;2023-05-14T04:53:31;101.88;;;48.83;;
20283;SDS011;10301;50.832;4.080;2023-05-14T04:55:57;101.28;;;49.83;;
20283;SDS011;10301;50.832;4.080;2023-05-14T04:58:23;103.55;;;47.90;;
20283;SDS011;10301;50.832;4.080;2023-05-14T05:00:48;118.85;;;54.13;;
20283;SDS011;10301;50.832;4.080;2023-05-14T05:03:14;124.47;;;51.45;;
20283;SDS011;10301;50.832;4.080;2023-05-14T05:05:40;104.55;;;49.95;;
20283;SDS011;10301;50.832;4.080;2023-05-14T05:08:06;104.32;;;47.42;;
20283;SDS011;10301;50.832;4.080;2023-05-14T05:10:31;98.55;;;48.25;;
20283;SDS011;10301;50.832;4.080;2023-05-14T05:12:57;103.35;;;48.55;;
20283;SDS011;10301;50.832;4.080;2023-05-14T05:15:23;112.03;;;52.85;;
20283;SDS011;10301;50.832;4.080;2023-05-14T05:17:48;117.95;;;54.72;;
20283;SDS011;10301;50.832;4.080;2023-05-14T05:20:14;111.40;;;52.53;;
20283;SDS011;10301;50.832;4.080;2023-05-14T05:22:40;108.20;;;52.20;;
20283;SDS011;10301;50.832;4.080;2023-05-14T05:25:05;110.13;;;50.88;;
20283;SDS011;10301;50.832;4.080;2023-05-14T05:27:32;115.18;;;52.53;;
20283;SDS011;10301;50.832;4.080;2023-05-14T05:30:00;104.88;;;49.50;;
20283;SDS011;10301;50.832;4.080;2023-05-14T05:32:26;115.22;;;50.92;;
20283;SDS011;10301;50.832;4.080;2023-05-14T05:34:52;118.15;;;53.63;;
20283;SDS011;10301;50.832;4.080;2023-05-14T05:37:18;114.65;;;54.45;;
20283;SDS011;10301;50.832;4.080;2023-05-14T05:39:43;117.50;;;53.08;;
20283;SDS011;10301;50.832;4.080;2023-05-14T05:42:09;111.45;;;52.03;;
20283;SDS011;10301;50.832;4.080;2023-05-14T05:44:35;119.90;;;51.55;;
20283;SDS011;10301;50.832;4.080;2023-05-14T05:47:00;119.25;;;51.38;;
20283;SDS011;10301;50.832;4.080;2023-05-14T05:49:26;117.20;;;49.00;;
20283;SDS011;10301;50.832;4.080;2023-05-14T05:51:52;126.35;;;53.10;;
20283;SDS011;10301;50.832;4.080;2023-05-14T05:54:17;126.20;;;52.63;;
20283;SDS011;10301;50.832;4.080;2023-05-14T05:56:43;135.35;;;55.08;;
20283;SDS011;10301;50.832;4.080;2023-05-14T05:59:09;137.93;;;57.38;;
20283;SDS011;10301;50.832;4.080;2023-05-14T06:01:34;148.63;;;60.40;;
20283;SDS011;10301;50.832;4.080;2023-05-14T06:04:00;157.88;;;64.53;;
20283;SDS011;10301;50.832;4.080;2023-05-14T06:06:27;167.32;;;67.50;;
20283;SDS011;10301;50.832;4.080;2023-05-14T06:08:53;168.95;;;69.47;;
20283;SDS011;10301;50.832;4.080;2023-05-14T06:11:19;175.38;;;68.95;;
20283;SDS011;10301;50.832;4.080;2023-05-14T06:13:45;192.50;;;71.68;;
20283;SDS011;10301;50.832;4.080;2023-05-14T06:16:11;181.95;;;73.35;;
20283;SDS011;10301;50.832;4.080;2023-05-14T06:18:37;179.75;;;72.55;;
20283;SDS011;10301;50.832;4.080;2023-05-14T06:21:02;200.15;;;75.72;;
20283;SDS011;10301;50.832;4.080;2023-05-14T06:23:28;191.98;;;72.20;;
20283;SDS011;10301;50.832;4.080;2023-05-14T06:25:54;185.93;;;69.43;;
20283;SDS011;10301;50.832;4.080;2023-05-14T06:28:19;187.00;;;71.25;;
20283;SDS011;10301;50.832;4.080;2023-05-14T06:30:48;183.85;;;69.07;;
20283;SDS011;10301;50.832;4.080;2023-05-14T06:33:14;180.88;;;68.28;;
20283;SDS011;10301;50.832;4.080;2023-05-14T06:35:39;179.90;;;65.53;;
20283;SDS011;10301;50.832;4.080;2023-05-14T06:38:05;169.05;;;66.13;;
20283;SDS011;10301;50.832;4.080;2023-05-14T06:40:31;176.00;;;65.47;;
20283;SDS011;10301;50.832;4.080;2023-05-14T06:42:56;160.18;;;65.63;;
20283;SDS011;10301;50.832;4.080;2023-05-14T06:45:22;156.93;;;62.20;;
20283;SDS011;10301;50.832;4.080;2023-05-14T06:47:48;163.60;;;66.90;;
20283;SDS011;10301;50.832;4.080;2023-05-14T06:50:13;152.05;;;61.72;;
20283;SDS011;10301;50.832;4.080;2023-05-14T06:52:39;151.55;;;63.15;;
20283;SDS011;10301;50.832;4.080;2023-05-14T06:55:05;138.25;;;56.47;;
20283;SDS011;10301;50.832;4.080;2023-05-14T06:57:31;142.52;;;58.55;;
20283;SDS011;10301;50.832;4.080;2023-05-14T06:59:58;135.63;;;58.78;;
20283;SDS011;10301;50.832;4.080;2023-05-14T07:02:23;126.30;;;58.03;;
20283;SDS011;10301;50.832;4.080;2023-05-14T07:04:49;139.43;;;58.35;;
20283;SDS011;10301;50.832;4.080;2023-05-14T07:07:15;127.97;;;57.35;;
20283;SDS011;10301;50.832;4.080;2023-05-14T07:09:44;131.27;;;57.88;;
20283;SDS011;10301;50.832;4.080;2023-05-14T07:12:10;136.13;;;60.15;;
20283;SDS011;10301;50.832;4.080;2023-05-14T07:14:36;136.38;;;59.45;;
20283;SDS011;10301;50.832;4.080;2023-05-14T07:17:02;137.38;;;57.85;;
20283;SDS011;10301;50.832;4.080;2023-05-14T07:19:28;124.80;;;56.97;;
20283;SDS011;10301;50.832;4.080;2023-05-14T07:21:54;121.35;;;55.67;;
20283;SDS011;10301;50.832;4.080;2023-05-14T07:24:21;113.95;;;51.90;;
20283;SDS011;10301;50.832;4.080;2023-05-14T07:26:47;108.93;;;51.72;;
20283;SDS011;10301;50.832;4.080;2023-05-14T07:29:13;104.22;;;48.80;;
20283;SDS011;10301;50.832;4.080;2023-05-14T07:31:38;94.80;;;47.58;;
20283;SDS011;10301;50.832;4.080;2023-05-14T07:34:04;101.53;;;49.92;;
20283;SDS011;10301;50.832;4.080;2023-05-14T07:36:30;106.28;;;52.15;;
20283;SDS011;10301;50.832;4.080;2023-05-14T07:38:56;104.03;;;51.30;;
20283;SDS011;10301;50.832;4.080;2023-05-14T07:41:21;102.50;;;51.63;;
20283;SDS011;10301;50.832;4.080;2023-05-14T07:43:47;101.45;;;50.58;;
20283;SDS011;10301;50.832;4.080;2023-05-14T07:46:13;98.20;;;50.25;;
20283;SDS011;10301;50.832;4.080;2023-05-14T07:48:39;96.63;;;48.67;;
20283;SDS011;10301;50.832;4.080;2023-05-14T07:51:04;92.43;;;48.22;;
20283;SDS011;10301;50.832;4.080;2023-05-14T07:53:30;94.85;;;47.72;;
20283;SDS011;10301;50.832;4.080;2023-05-14T07:55:56;92.07;;;46.10;;
20283;SDS011;10301;50.832;4.080;2023-05-14T07:58:23;90.40;;;46.80;;
20283;SDS011;10301;50.832;4.080;2023-05-14T08:00:50;87.95;;;46.97;;
20283;SDS011;10301;50.832;4.080;2023-05-14T08:03:16;84.15;;;45.60;;
20283;SDS011;10301;50.832;4.080;2023-05-14T08:05:42;87.93;;;44.10;;
20283;SDS011;10301;50.832;4.080;2023-05-14T08:08:07;77.28;;;46.35;;
20283;SDS011;10301;50.832;4.080;2023-05-14T08:10:33;81.28;;;44.80;;
20283;SDS011;10301;50.832;4.080;2023-05-14T08:12:59;86.53;;;44.47;;
20283;SDS011;10301;50.832;4.080;2023-05-14T08:15:25;76.00;;;43.63;;
20283;SDS011;10301;50.832;4.080;2023-05-14T08:17:50;77.32;;;45.10;;
20283;SDS011;10301;50.832;4.080;2023-05-14T08:20:16;79.82;;;42.53;;
20283;SDS011;10301;50.832;4.080;2023-05-14T08:22:42;82.57;;;43.20;;
20283;SDS011;10301;50.832;4.080;2023-05-14T08:25:08;75.47;;;44.03;;
20283;SDS011;10301;50.832;4.080;2023-05-14T08:27:34;72.72;;;42.70;;
20283;SDS011;10301;50.832;4.080;2023-05-14T08:30:00;94.25;;;63.80;;
20283;SDS011;10301;50.832;4.080;2023-05-14T08:32:25;80.78;;;45.15;;
20283;SDS011;10301;50.832;4.080;2023-05-14T08:34:51;78.43;;;43.58;;
20283;SDS011;10301;50.832;4.080;2023-05-14T08:37:17;71.50;;;42.47;;
20283;SDS011;10301;50.832;4.080;2023-05-14T08:39:42;74.00;;;43.53;;
20283;SDS011;10301;50.832;4.080;2023-05-14T08:42:08;67.30;;;41.30;;
20283;SDS011;10301;50.832;4.080;2023-05-14T08:47:17;66.15;;;41.17;;
20283;SDS011;10301;50.832;4.080;2023-05-14T08:49:46;68.28;;;41.60;;
20283;SDS011;10301;50.832;4.080;2023-05-14T08:52:17;59.78;;;39.13;;
20283;SDS011;10301;50.832;4.080;2023-05-14T08:54:46;58.08;;;39.00;;
20283;SDS011;10301;50.832;4.080;2023-05-14T08:57:14;61.50;;;38.95;;
20283;SDS011;10301;50.832;4.080;2023-05-14T08:59:42;63.33;;;41.53;;
20283;SDS011;10301;50.832;4.080;2023-05-14T09:02:08;61.40;;;37.58;;
20283;SDS011;10301;50.832;4.080;2023-05-14T09:04:36;60.00;;;37.13;;
20283;SDS011;10301;50.832;4.080;2023-05-14T09:07:02;66.93;;;40.30;;
20283;SDS011;10301;50.832;4.080;2023-05-14T09:09:28;62.75;;;41.92;;
20283;SDS011;10301;50.832;4.080;2023-05-14T09:11:55;66.70;;;42.05;;
20283;SDS011;10301;50.832;4.080;2023-05-14T09:14:21;70.65;;;41.40;;
20283;SDS011;10301;50.832;4.080;2023-05-14T09:16:47;57.97;;;36.95;;
20283;SDS011;10301;50.832;4.080;2023-05-14T09:19:14;49.42;;;34.70;;
20283;SDS011;10301;50.832;4.080;2023-05-14T09:21:43;48.60;;;31.77;;
20283;SDS011;10301;50.832;4.080;2023-05-14T09:24:17;42.05;;;29.63;;
20283;SDS011;10301;50.832;4.080;2023-05-14T09:26:51;48.88;;;31.77;;
20283;SDS011;10301;50.832;4.080;2023-05-14T09:29:17;47.33;;;31.58;;
20283;SDS011;10301;50.832;4.080;2023-05-14T09:31:43;46.92;;;30.55;;
20283;SDS011;10301;50.832;4.080;2023-05-14T09:34:09;43.47;;;30.33;;
20283;SDS011;10301;50.832;4.080;2023-05-14T09:36:35;46.38;;;30.60;;
20283;SDS011;10301;50.832;4.080;2023-05-14T09:39:03;59.00;;;37.50;;
20283;SDS011;10301;50.832;4.080;2023-05-14T09:41:29;63.10;;;40.42;;
20283;SDS011;10301;50.832;4.080;2023-05-14T09:43:55;66.75;;;41.28;;
20283;SDS011;10301;50.832;4.080;2023-05-14T09:46:22;62.42;;;39.88;;
20283;SDS011;10301;50.832;4.080;2023-05-14T09:48:48;69.85;;;40.60;;
20283;SDS011;10301;50.832;4.080;2023-05-14T09:51:14;69.05;;;43.15;;
20283;SDS011;10301;50.832;4.080;2023-05-14T09:53:42;64.95;;;42.85;;
20283;SDS011;10301;50.832;4.080;2023-05-14T09:56:08;71.60;;;44.83;;
20283;SDS011;10301;50.832;4.080;2023-05-14T09:58:34;73.55;;;44.80;;
20283;SDS011;10301;50.832;4.080;2023-05-14T10:01:00;71.28;;;43.72;;
20283;SDS011;10301;50.832;4.080;2023-05-14T10:03:26;72.47;;;45.10;;
20283;SDS011;10301;50.832;4.080;2023-05-14T10:05:54;72.35;;;44.75;;
20283;SDS011;10301;50.832;4.080;2023-05-14T10:08:34;73.88;;;45.13;;
20283;SDS011;10301;50.832;4.080;2023-05-14T10:11:04;78.25;;;48.13;;
20283;SDS011;10301;50.832;4.080;2023-05-14T10:13:36;78.00;;;48.00;;
20283;SDS011;10301;50.832;4.080;2023-05-14T10:16:10;69.75;;;45.70;;
20283;SDS011;10301;50.832;4.080;2023-05-14T10:18:42;78.82;;;47.03;;
20283;SDS011;10301;50.832;4.080;2023-05-14T10:21:13;65.13;;;44.13;;
20283;SDS011;10301;50.832;4.080;2023-05-14T10:23:41;68.63;;;43.63;;
20283;SDS011;10301;50.832;4.080;2023-05-14T10:26:07;62.95;;;41.47;;
20283;SDS011;10301;50.832;4.080;2023-05-14T10:28:34;69.65;;;44.45;;
20283;SDS011;10301;50.832;4.080;2023-05-14T10:31:00;67.75;;;44.70;;
20283;SDS011;10301;50.832;4.080;2023-05-14T10:33:26;73.75;;;46.83;;
20283;SDS011;10301;50.832;4.080;2023-05-14T10:36:05;70.35;;;43.78;;
20283;SDS011;10301;50.832;4.080;2023-05-14T10:38:35;67.10;;;42.33;;
20283;SDS011;10301;50.832;4.080;2023-05-14T10:41:06;67.40;;;42.15;;
20283;SDS011;10301;50.832;4.080;2023-05-14T10:43:37;67.22;;;40.70;;
20283;SDS011;10301;50.832;4.080;2023-05-14T10:46:05;65.40;;;39.83;;
20283;SDS011;10301;50.832;4.080;2023-05-14T10:48:32;65.07;;;41.33;;
20283;SDS011;10301;50.832;4.080;2023-05-14T10:50:58;60.88;;;37.97;;
20283;SDS011;10301;50.832;4.080;2023-05-14T10:53:31;61.17;;;40.50;;
20283;SDS011;10301;50.832;4.080;2023-05-14T10:56:02;56.55;;;38.20;;
20283;SDS011;10301;50.832;4.080;2023-05-14T10:58:36;61.58;;;39.30;;
20283;SDS011;10301;50.832;4.080;2023-05-14T11:01:02;61.08;;;39.75;;
20283;SDS011;10301;50.832;4.080;2023-05-14T11:03:30;60.40;;;38.28;;
20283;SDS011;10301;50.832;4.080;2023-05-14T11:06:02;57.67;;;35.78;;
20283;SDS011;10301;50.832;4.080;2023-05-14T11:08:30;52.63;;;34.25;;
20283;SDS011;10301;50.832;4.080;2023-05-14T11:10:56;52.58;;;35.05;;
20283;SDS011;10301;50.832;4.080;2023-05-14T11:13:22;54.83;;;36.33;;
20283;SDS011;10301;50.832;4.080;2023-05-14T11:15:49;59.83;;;39.40;;
20283;SDS011;10301;50.832;4.080;2023-05-14T11:18:27;57.60;;;37.95;;
20283;SDS011;10301;50.832;4.080;2023-05-14T11:21:00;56.83;;;35.50;;
20283;SDS011;10301;50.832;4.080;2023-05-14T11:23:26;65.88;;;39.00;;
20283;SDS011;10301;50.832;4.080;2023-05-14T11:25:52;62.78;;;39.88;;
20283;SDS011;10301;50.832;4.080;2023-05-14T11:28:22;60.17;;;39.08;;
20283;SDS011;10301;50.832;4.080;2023-05-14T11:30:50;49.42;;;31.65;;
20283;SDS011;10301;50.832;4.080;2023-05-14T11:33:16;49.80;;;32.30;;
20283;SDS011;10301;50.832;4.080;2023-05-14T11:35:42;51.70;;;36.40;;
20283;SDS011;10301;50.832;4.080;2023-05-14T11:38:13;49.65;;;32.67;;
20283;SDS011;10301;50.832;4.080;2023-05-14T11:40:40;52.80;;;35.10;;
20283;SDS011;10301;50.832;4.080;2023-05-14T11:43:05;50.55;;;33.40;;
20283;SDS011;10301;50.832;4.080;2023-05-14T11:45:32;47.33;;;32.22;;
20283;SDS011;10301;50.832;4.080;2023-05-14T11:47:58;39.28;;;26.92;;
20283;SDS011;10301;50.832;4.080;2023-05-14T11:50:23;33.47;;;24.95;;
20283;SDS011;10301;50.832;4.080;2023-05-14T11:52:49;31.83;;;22.13;;
20283;SDS011;10301;50.832;4.080;2023-05-14T11:55:15;34.22;;;23.15;;
20283;SDS011;10301;50.832;4.080;2023-05-14T11:57:41;37.20;;;26.33;;
20283;SDS011;10301;50.832;4.080;2023-05-14T12:00:10;41.25;;;27.50;;
20283;SDS011;10301;50.832;4.080;2023-05-14T12:02:46;50.38;;;33.45;;
20283;SDS011;10301;50.832;4.080;2023-05-14T12:05:12;54.85;;;33.08;;
20283;SDS011;10301;50.832;4.080;2023-05-14T12:07:38;51.72;;;32.08;;
20283;SDS011;10301;50.832;4.080;2023-05-14T12:10:04;49.67;;;30.42;;
20283;SDS011;10301;50.832;4.080;2023-05-14T12:12:33;46.00;;;29.90;;
20283;SDS011;10301;50.832;4.080;2023-05-14T12:15:00;49.80;;;30.92;;
20283;SDS011;10301;50.832;4.080;2023-05-14T12:17:26;63.70;;;38.63;;
20283;SDS011;10301;50.832;4.080;2023-05-14T12:19:51;67.18;;;39.17;;
20283;SDS011;10301;50.832;4.080;2023-05-14T12:22:18;65.72;;;38.47;;
20283;SDS011;10301;50.832;4.080;2023-05-14T12:24:56;54.05;;;34.58;;
20283;SDS011;10301;50.832;4.080;2023-05-14T12:27:23;50.20;;;30.73;;
20283;SDS011;10301;50.832;4.080;2023-05-14T12:29:59;42.38;;;28.02;;
20283;SDS011;10301;50.832;4.080;2023-05-14T12:32:27;36.75;;;25.50;;
20283;SDS011;10301;50.832;4.080;2023-05-14T12:34:55;31.65;;;23.50;;
20283;SDS011;10301;50.832;4.080;2023-05-14T12:37:21;28.77;;;21.30;;
20283;SDS011;10301;50.832;4.080;2023-05-14T12:39:46;31.77;;;23.27;;
20283;SDS011;10301;50.832;4.080;2023-05-14T12:42:13;30.08;;;22.02;;
20283;SDS011;10301;50.832;4.080;2023-05-14T12:44:40;29.15;;;20.17;;
20283;SDS011;10301;50.832;4.080;2023-05-14T12:47:06;30.38;;;23.15;;
20283;SDS011;10301;50.832;4.080;2023-05-14T12:49:32;33.28;;;23.05;;
20283;SDS011;10301;50.832;4.080;2023-05-14T12:51:57;32.42;;;21.83;;
20283;SDS011;10301;50.832;4.080;2023-05-14T12:54:23;31.30;;;23.00;;
20283;SDS011;10301;50.832;4.080;2023-05-14T12:56:49;32.30;;;23.00;;
20283;SDS011;10301;50.832;4.080;2023-05-14T12:59:14;31.25;;;22.70;;
20283;SDS011;10301;50.832;4.080;2023-05-14T13:01:40;28.42;;;20.80;;
20283;SDS011;10301;50.832;4.080;2023-05-14T13:04:06;31.08;;;21.05;;
20283;SDS011;10301;50.832;4.080;2023-05-14T13:06:36;26.58;;;19.88;;
20283;SDS011;10301;50.832;4.080;2023-05-14T13:09:02;29.65;;;21.92;;
20283;SDS011;10301;50.832;4.080;2023-05-14T13:11:28;28.50;;;22.15;;
20283;SDS011;10301;50.832;4.080;2023-05-14T13:13:56;27.13;;;21.35;;
20283;SDS011;10301;50.832;4.080;2023-05-14T13:16:26;36.05;;;22.88;;
20283;SDS011;10301;50.832;4.080;2023-05-14T13:18:52;31.48;;;22.23;;
20283;SDS011;10301;50.832;4.080;2023-05-14T13:21:18;26.10;;;19.33;;
20283;SDS011;10301;50.832;4.080;2023-05-14T13:23:44;23.33;;;17.95;;
20283;SDS011;10301;50.832;4.080;2023-05-14T13:26:10;30.02;;;19.85;;
20283;SDS011;10301;50.832;4.080;2023-05-14T13:28:35;31.60;;;21.60;;
20283;SDS011;10301;50.832;4.080;2023-05-14T13:31:02;33.75;;;21.05;;
20283;SDS011;10301;50.832;4.080;2023-05-14T13:33:36;30.13;;;21.30;;
20283;SDS011;10301;50.832;4.080;2023-05-14T13:36:05;28.98;;;21.13;;
20283;SDS011;10301;50.832;4.080;2023-05-14T13:38:32;29.60;;;19.35;;
20283;SDS011;10301;50.832;4.080;2023-05-14T13:40:58;24.00;;;18.90;;
20283;SDS011;10301;50.832;4.080;2023-05-14T13:43:29;26.00;;;18.63;;
20283;SDS011;10301;50.832;4.080;2023-05-14T13:45:56;25.73;;;17.05;;
20283;SDS011;10301;50.832;4.080;2023-05-14T13:48:22;26.58;;;19.23;;
20283;SDS011;10301;50.832;4.080;2023-05-14T13:50:48;26.65;;;17.38;;
20283;SDS011;10301;50.832;4.080;2023-05-14T13:53:16;23.98;;;17.13;;
20283;SDS011;10301;50.832;4.080;2023-05-14T13:55:43;27.92;;;17.00;;
20283;SDS011;10301;50.832;4.080;2023-05-14T13:58:09;22.77;;;16.58;;
20283;SDS011;10301;50.832;4.080;2023-05-14T14:00:35;21.17;;;14.45;;
20283;SDS011;10301;50.832;4.080;2023-05-14T14:03:00;19.17;;;14.88;;
20283;SDS011;10301;50.832;4.080;2023-05-14T14:05:26;23.48;;;15.27;;
20283;SDS011;10301;50.832;4.080;2023-05-14T14:07:55;22.02;;;14.77;;
20283;SDS011;10301;50.832;4.080;2023-05-14T14:10:21;18.23;;;14.30;;
20283;SDS011;10301;50.832;4.080;2023-05-14T14:12:47;17.80;;;13.48;;
20283;SDS011;10301;50.832;4.080;2023-05-14T14:15:13;21.40;;;12.90;;
20283;SDS011;10301;50.832;4.080;2023-05-14T14:17:39;20.85;;;13.40;;
20283;SDS011;10301;50.832;4.080;2023-05-14T14:20:08;16.85;;;12.82;;
20283;SDS011;10301;50.832;4.080;2023-05-14T14:22:34;16.67;;;13.48;;